TAF and METAR

METAR for Martín Miguel de Güemes International Airport

SASA 221200Z 36004KT 8000 VCSH FEW007 SCT015 OVC100 19/19 Q1014
Report created 22. okt 14:00
wind 4 knots from N (360°) visibility 8000 meters showers in the vicinity some clouds (~25% cover) at 700 feet scattered clouds (~50% cover) at 1500 feet overcast at 10000 feet Temperature 19° with dewpoint at 19° (Humidity 100.00%) Pressure 1014 hPa

TAF for Martín Miguel de Güemes International Airport

TAF SASA 221100Z 2212/2312 07005KT 3000 RADZ SCT007 BKN015 TX24/2218Z TN17/2310Z FEW040TCU BECMG 2303/2306 16005KT 4000 DZ BKN007 OVC020
Report created 22. okt 13:00

between 22. okt 14:00 - 23. okt 14:00

wind 5 knots from ENE (070°) visibility 3000 meters rain and drizzle scattered clouds (~50% cover) at 700 feet broken clouds (~75% cover) at 1500 feet Max temperature 24° expected today at around 20 o'clock Min temperature 17° expected tomorrow at around 12 o'clock
Martín Miguel de Güemes International Airport in Argentina at 1216m

Latest 5 airports